Time;durP1;ratioP1;P1;durP2;ratioP2;P2;SDS_P1;SDS_P2;PMS_P1;PMS_P2;Temp;Humidity;BMP_temperature;BMP_pressure;BME280_temperature;BME280_humidity;BME280_pressure;Samples;Min_cycle;Max_cycle;Signal;HPM_P1;HPM_P2
2022/03/08 00:02:07;;;;;;;17.60;9.27;;;;;;;1.92;83.46;102240.09;5007633;28;20240;-57
2022/03/08 00:04:34;;;;;;;14.80;9.70;;;;;;;1.87;83.95;102226.88;5012489;28;20229;-53
2022/03/08 00:07:01;;;;;;;10.93;7.53;;;;;;;1.85;84.90;102237.94;5005345;28;20228;-56
2022/03/08 00:09:28;;;;;;;13.17;9.50;;;;;;;1.80;86.12;102234.22;5010606;28;20244;-55
2022/03/08 00:11:54;;;;;;;11.57;9.43;;;;;;;1.64;86.58;102230.69;5010404;28;20232;-56
2022/03/08 00:14:21;;;;;;;17.37;11.37;;;;;;;1.52;86.50;102221.31;5004839;28;20398;-56
2022/03/08 00:16:49;;;;;;;15.50;11.37;;;;;;;1.42;86.71;102222.47;5003652;28;20260;-55
2022/03/08 00:19:15;;;;;;;17.77;13.20;;;;;;;1.32;87.26;102222.72;5005753;28;20240;-55
2022/03/08 00:21:42;;;;;;;24.53;18.03;;;;;;;1.28;87.28;102226.81;5009860;28;20263;-55
2022/03/08 00:24:08;;;;;;;30.07;20.73;;;;;;;1.20;86.89;102233.22;5009909;28;20290;-54
2022/03/08 00:26:35;;;;;;;30.77;21.67;;;;;;;1.17;87.74;102226.16;5005404;28;20721;-54
2022/03/08 00:29:01;;;;;;;26.57;20.43;;;;;;;1.22;88.08;102226.44;5008004;28;20260;-56
2022/03/08 00:31:27;;;;;;;26.43;18.80;;;;;;;1.13;88.35;102229.38;5004086;28;20240;-53
2022/03/08 00:33:55;;;;;;;26.07;18.70;;;;;;;0.99;nan;102232.81;5009000;28;20744;-54
2022/03/08 00:36:22;;;;;;;25.23;19.63;;;;;;;0.89;88.77;102231.31;5007089;28;20232;-54
2022/03/08 00:38:48;;;;;;;23.73;18.13;;;;;;;0.79;89.37;102228.97;5008251;28;20268;-54
2022/03/08 00:41:14;;;;;;;25.23;19.30;;;;;;;0.78;89.88;102236.63;5006021;28;20240;-55
2022/03/08 00:43:41;;;;;;;23.03;16.73;;;;;;;0.77;89.65;102240.00;5009966;28;20318;-55
2022/03/08 00:46:07;;;;;;;21.93;16.77;;;;;;;0.76;89.76;102231.34;5006994;28;20598;-55
2022/03/08 00:48:33;;;;;;;23.83;18.60;;;;;;;0.74;89.60;102235.56;5006516;28;20732;-55
2022/03/08 00:51:01;;;;;;;22.60;16.47;;;;;;;0.71;90.57;102236.25;5009238;28;20280;-55
2022/03/08 00:53:27;;;;;;;21.17;16.23;;;;;;;0.71;90.68;102227.59;5010162;28;21429;-56
2022/03/08 00:55:54;;;;;;;19.63;16.33;;;;;;;0.69;90.96;102227.47;5006464;28;20262;-55
2022/03/08 00:58:21;;;;;;;17.63;15.20;;;;;;;0.64;91.10;102228.91;5009594;28;20909;-55
2022/03/08 01:00:47;;;;;;;21.70;15.13;;;;;;;0.63;91.28;102226.19;5008705;28;20271;-55
2022/03/08 01:03:14;;;;;;;18.47;15.07;;;;;;;0.62;91.19;102221.84;5009216;28;20256;-55
2022/03/08 01:05:40;;;;;;;18.73;13.17;;;;;;;0.61;91.46;102228.69;5009025;28;20279;-55
2022/03/08 01:08:08;;;;;;;19.70;14.20;;;;;;;0.59;91.31;102214.78;5008797;28;20233;-54
2022/03/08 01:10:34;;;;;;;14.53;11.93;;;;;;;0.60;91.56;102220.88;5008677;28;20240;-55
2022/03/08 01:13:01;;;;;;;17.87;12.53;;;;;;;0.62;91.82;102217.56;5006584;28;20239;-55
2022/03/08 01:15:28;;;;;;;13.67;10.87;;;;;;;0.65;91.68;102219.44;5009047;28;20236;-56
2022/03/08 01:17:55;;;;;;;15.33;10.50;;;;;;;0.63;91.62;102210.69;5009044;28;20251;-55
2022/03/08 01:20:22;;;;;;;17.17;9.57;;;;;;;0.60;91.99;102210.53;5008366;28;20255;-56
2022/03/08 01:22:49;;;;;;;11.73;7.90;;;;;;;0.57;92.23;102210.34;5003023;28;20307;-55
2022/03/08 01:25:18;;;;;;;13.67;7.30;;;;;;;0.54;92.11;102210.13;5008604;28;20259;-55
2022/03/08 01:27:44;;;;;;;11.83;7.30;;;;;;;0.54;92.48;102205.84;5010536;28;20262;-54
2022/03/08 01:30:13;;;;;;;7.40;6.43;;;;;;;0.57;92.21;102212.91;5008916;28;20322;-55
2022/03/08 01:32:39;;;;;;;10.07;6.33;;;;;;;0.58;91.89;102206.94;5006916;28;20236;-56
2022/03/08 01:35:06;;;;;;;10.77;6.47;;;;;;;0.60;92.07;102213.13;5009921;28;20756;-56
2022/03/08 01:37:33;;;;;;;8.07;5.83;;;;;;;0.60;91.62;102211.41;5009096;28;20263;-57
2022/03/08 01:39:59;;;;;;;8.93;7.00;;;;;;;0.62;91.48;102211.50;5011906;28;20293;-55
2022/03/08 01:42:27;;;;;;;7.77;5.27;;;;;;;0.61;91.76;102207.13;5010286;28;20244;-55
2022/03/08 01:44:53;;;;;;;9.77;6.70;;;;;;;0.59;91.81;102206.13;5010480;28;20325;-55
2022/03/08 01:47:21;;;;;;;8.37;7.27;;;;;;;0.57;92.13;102210.34;5008573;28;20292;-56
2022/03/08 01:49:49;;;;;;;10.20;7.33;;;;;;;0.55;92.06;102212.81;5010873;28;20708;-55
2022/03/08 01:52:16;;;;;;;9.97;5.93;;;;;;;0.55;92.36;102206.75;5010780;28;20244;-55
2022/03/08 01:54:43;;;;;;;7.77;6.97;;;;;;;0.56;92.36;102199.09;5005648;28;20667;-55
2022/03/08 01:57:10;;;;;;;15.83;7.47;;;;;;;0.53;92.37;102200.56;5008546;28;20240;-55
2022/03/08 01:59:37;;;;;;;7.27;6.53;;;;;;;0.50;92.60;102198.72;5009132;28;20244;-56
2022/03/08 02:02:05;;;;;;;10.13;7.10;;;;;;;0.50;93.23;102200.41;5006709;28;20267;-55
2022/03/08 02:04:31;;;;;;;8.70;7.67;;;;;;;0.44;93.54;102200.91;5008541;28;20237;-54
2022/03/08 02:06:58;;;;;;;9.40;7.00;;;;;;;0.45;93.95;102194.94;5009894;28;20258;-56
2022/03/08 02:09:24;;;;;;;8.37;6.33;;;;;;;0.44;94.58;102196.63;5007270;28;20282;-56
2022/03/08 02:11:50;;;;;;;8.43;6.23;;;;;;;0.45;94.93;102200.09;5011300;28;20294;-55
2022/03/08 02:14:17;;;;;;;8.30;6.83;;;;;;;0.44;94.61;102191.44;5010779;28;20678;-56
2022/03/08 02:16:46;;;;;;;10.27;7.23;;;;;;;0.42;94.70;102195.66;5010105;28;20248;-55
2022/03/08 02:19:14;;;;;;;9.63;6.97;;;;;;;0.44;94.81;102188.88;5007505;28;20753;-54
2022/03/08 02:21:43;;;;;;;11.23;6.77;;;;;;;0.44;94.98;102191.44;5009860;28;20289;-55
2022/03/08 02:24:09;;;;;;;7.10;6.40;;;;;;;0.43;94.83;102202.59;5009303;28;20240;-56
2022/03/08 02:26:36;;;;;;;8.27;6.33;;;;;;;0.44;95.00;102191.44;5009827;28;20811;-55
2022/03/08 02:29:06;;;;;;;10.80;7.40;;;;;;;0.44;95.13;102187.97;5012129;28;20256;-55
2022/03/08 02:31:32;;;;;;;8.97;6.33;;;;;;;0.40;95.00;102192.06;5016244;28;20244;-54
2022/03/08 02:33:59;;;;;;;11.57;8.17;;;;;;;0.40;95.25;102192.06;5018843;28;20248;-55
2022/03/08 02:36:25;;;;;;;8.80;7.90;;;;;;;0.40;95.33;102192.06;5019331;28;20240;-55
2022/03/08 02:38:53;;;;;;;9.00;7.37;;;;;;;0.34;95.86;102185.59;5015988;28;20280;-56
2022/03/08 02:41:19;;;;;;;11.43;7.47;;;;;;;0.29;96.18;102190.50;5008918;28;20232;-55
2022/03/08 02:43:45;;;;;;;10.77;7.67;;;;;;;0.26;96.19;102191.97;5009156;28;20330;-56
2022/03/08 02:46:12;;;;;;;8.83;6.43;;;;;;;0.20;96.26;102202.81;5010731;28;20232;-54
2022/03/08 02:48:38;;;;;;;12.17;6.77;;;;;;;0.18;96.38;102205.31;5009511;28;20244;-54
2022/03/08 02:51:04;;;;;;;6.73;6.00;;;;;;;0.18;96.06;102194.97;5008127;28;20232;-54
2022/03/08 02:53:31;;;;;;;8.30;6.50;;;;;;;0.16;96.04;102199.13;5009773;28;20275;-55
2022/03/08 02:55:59;;;;;;;9.47;8.13;;;;;;;0.19;95.48;102201.91;5010093;28;20251;-54
2022/03/08 02:58:25;;;;;;;8.87;7.97;;;;;;;0.17;95.12;102200.03;5001746;28;20245;-53
2022/03/08 03:04:14;;;;;;;11.93;9.13;;;;;;;0.03;95.20;102204.28;5001801;28;20270;-55
2022/03/08 03:06:40;;;;;;;13.70;10.33;;;;;;;-0.01;95.55;102200.63;5008750;28;20282;-57
2022/03/08 03:09:07;;;;;;;12.20;9.20;;;;;;;-0.06;95.69;102189.09;5008641;28;20244;-57
2022/03/08 03:11:34;;;;;;;17.13;9.33;;;;;;;-0.07;95.85;102191.56;5009441;28;20240;-53
2022/03/08 03:14:01;;;;;;;14.37;8.87;;;;;;;-0.10;96.27;102196.56;5008289;28;20240;-55
2022/03/08 03:16:28;;;;;;;15.13;9.07;;;;;;;-0.12;96.21;102196.44;5004679;28;20231;-54
2022/03/08 03:18:54;;;;;;;16.30;10.23;;;;;;;-0.14;96.52;102199.69;5008452;28;20244;-54
2022/03/08 03:21:20;;;;;;;12.60;9.17;;;;;;;-0.17;96.88;102196.94;5007600;28;20240;-55
2022/03/08 03:23:47;;;;;;;14.03;11.17;;;;;;;-0.16;97.28;102212.53;5008585;28;20765;-54
2022/03/08 03:26:13;;;;;;;16.73;10.63;;;;;;;-0.17;97.43;102205.59;5009562;28;20236;-54
2022/03/08 03:28:40;;;;;;;15.97;10.00;;;;;;;-0.21;97.44;102208.75;5009438;28;20240;-55
2022/03/08 03:31:07;;;;;;;15.43;9.93;;;;;;;-0.25;98.04;102205.09;5008705;28;20777;-54
2022/03/08 03:33:33;;;;;;;12.27;9.10;;;;;;;-0.26;97.68;102204.97;5009669;28;20262;-54
2022/03/08 03:35:59;;;;;;;13.70;8.83;;;;;;;-0.26;97.90;102197.22;5006981;28;20315;-54
2022/03/08 03:38:26;;;;;;;13.20;9.27;;;;;;;-0.25;98.04;102201.56;5009414;28;20259;-54
2022/03/08 03:40:52;;;;;;;12.73;8.53;;;;;;;-0.22;98.00;102199.19;5009939;28;20240;-55
2022/03/08 03:43:18;;;;;;;13.63;9.17;;;;;;;-0.21;97.95;102207.84;5007354;28;20236;-56
2022/03/08 03:45:46;;;;;;;13.73;8.77;;;;;;;-0.23;97.60;102202.59;5011278;28;20257;-55
2022/03/08 03:48:12;;;;;;;9.67;7.67;;;;;;;-0.22;97.76;102206.06;5010820;28;20232;-54
2022/03/08 03:50:39;;;;;;;11.33;8.57;;;;;;;-0.22;97.82;102206.94;5012238;28;20259;-55
2022/03/08 03:53:06;;;;;;;10.93;7.73;;;;;;;-0.18;97.74;102198.59;5010076;28;20309;-55
2022/03/08 03:55:32;;;;;;;10.73;8.13;;;;;;;-0.14;97.75;102195.47;5012517;28;20274;-55
2022/03/08 03:57:58;;;;;;;12.93;8.63;;;;;;;-0.12;97.15;102192.97;5012461;28;20887;-55
2022/03/08 04:00:25;;;;;;;11.33;7.57;;;;;;;-0.14;96.83;102200.63;5011974;28;20244;-54
2022/03/08 04:02:53;;;;;;;8.07;7.27;;;;;;;-0.18;96.81;102190.88;5012146;28;20236;-54
2022/03/08 04:05:19;;;;;;;7.57;6.53;;;;;;;-0.17;97.23;102199.53;5012053;28;20240;-54
2022/03/08 04:07:46;;;;;;;10.13;7.53;;;;;;;-0.17;97.21;102191.78;5011499;28;20226;-55
2022/03/08 04:10:14;;;;;;;9.97;6.27;;;;;;;-0.16;97.34;102185.81;5007064;28;20263;-55
2022/03/08 04:12:40;;;;;;;8.87;6.17;;;;;;;-0.13;97.06;102181.75;5012506;28;20228;-55
2022/03/08 04:15:07;;;;;;;14.03;6.97;;;;;;;-0.07;96.19;102189.91;5011689;28;20767;-54
2022/03/08 04:17:34;;;;;;;10.87;7.03;;;;;;;-0.07;95.88;102189.91;5011645;28;20266;-55
2022/03/08 04:20:02;;;;;;;6.17;5.47;;;;;;;-0.12;95.94;102193.84;5010681;28;20677;-55
2022/03/08 04:22:28;;;;;;;7.67;6.47;;;;;;;-0.03;95.79;102204.81;5011611;28;20237;-56
2022/03/08 04:24:54;;;;;;;9.93;6.70;;;;;;;-0.08;96.09;102205.28;5010768;28;20229;-55
2022/03/08 04:27:21;;;;;;;9.83;7.70;;;;;;;-0.14;96.20;102199.69;5009829;28;20331;-56
2022/03/08 04:29:47;;;;;;;9.17;6.73;;;;;;;-0.19;96.48;102195.94;5012921;28;20251;-56
2022/03/08 04:32:13;;;;;;;8.20;6.93;;;;;;;-0.20;96.20;102200.22;5012299;28;20774;-56
2022/03/08 04:34:40;;;;;;;11.50;7.80;;;;;;;-0.12;96.66;102196.44;5012089;28;20240;-58
2022/03/08 04:37:07;;;;;;;13.00;7.30;;;;;;;-0.23;96.92;102194.84;5010119;28;20745;-56
2022/03/08 04:39:34;;;;;;;12.03;7.60;;;;;;;-0.30;97.24;102202.97;5011844;28;20243;-56
2022/03/08 04:42:00;;;;;;;10.83;8.27;;;;;;;-0.32;97.71;102201.97;5013792;28;20467;-57
2022/03/08 04:44:27;;;;;;;10.70;6.83;;;;;;;-0.30;97.58;102198.69;5012542;28;20236;-56
2022/03/08 04:46:53;;;;;;;12.13;7.07;;;;;;;-0.32;97.52;102201.97;5011002;28;20236;-56
2022/03/08 04:49:19;;;;;;;11.80;7.53;;;;;;;-0.38;97.14;102194.72;5013251;28;20259;-55
2022/03/08 04:51:46;;;;;;;10.80;7.70;;;;;;;-0.43;97.39;102196.09;5014578;28;20249;-57
2022/03/08 04:54:14;;;;;;;10.83;7.60;;;;;;;-0.44;97.28;102201.16;5014376;28;20709;-56
2022/03/08 04:56:40;;;;;;;9.23;8.20;;;;;;;-0.46;97.55;102197.56;5012581;28;20233;-57
2022/03/08 04:59:06;;;;;;;8.60;7.70;;;;;;;-0.47;97.67;102216.44;5009362;28;20229;-57
2022/03/08 05:01:33;;;;;;;9.20;7.20;;;;;;;-0.48;97.99;102207.81;5012247;28;20233;-56
2022/03/08 05:03:59;;;;;;;9.30;7.93;;;;;;;-0.47;97.98;102213.84;5017267;28;20240;-57
2022/03/08 05:06:26;;;;;;;11.13;8.10;;;;;;;-0.50;98.19;102210.25;5019281;28;20665;-57
2022/03/08 05:08:52;;;;;;;9.87;7.20;;;;;;;-0.48;98.13;102218.13;5017696;28;20240;-56
2022/03/08 05:11:20;;;;;;;9.97;6.67;;;;;;;-0.51;97.72;102218.81;5013675;28;20299;-57
2022/03/08 05:13:46;;;;;;;7.80;7.00;;;;;;;-0.50;98.09;102220.56;5010919;28;20254;-57
2022/03/08 05:16:13;;;;;;;7.50;6.77;;;;;;;-0.47;97.43;102225.06;5010658;28;20311;-56
2022/03/08 05:18:39;;;;;;;7.17;6.53;;;;;;;-0.51;97.68;102218.81;5009978;28;20241;-55
2022/03/08 05:21:05;;;;;;;9.20;8.00;;;;;;;-0.55;97.32;102223.66;5012268;28;20302;-57
2022/03/08 05:23:32;;;;;;;7.93;6.93;;;;;;;-0.59;97.32;102230.28;5011179;28;20270;-57
2022/03/08 05:25:58;;;;;;;7.50;6.30;;;;;;;-0.64;97.42;102226.50;5008898;28;20244;-56
2022/03/08 05:28:26;;;;;;;10.37;7.20;;;;;;;-0.64;97.33;102226.50;5010406;28;20270;-57
2022/03/08 05:30:53;;;;;;;11.33;8.07;;;;;;;-0.73;97.43;102238.78;5010610;28;20259;-55
2022/03/08 05:33:19;;;;;;;10.43;7.03;;;;;;;-0.79;97.39;102239.25;5014643;28;20236;-56
2022/03/08 05:35:45;;;;;;;8.90;6.87;;;;;;;-0.86;97.45;102238.72;5017814;28;20247;-55
2022/03/08 05:38:12;;;;;;;9.73;6.40;;;;;;;-0.91;97.67;102247.78;5019203;28;20233;-56
2022/03/08 05:40:39;;;;;;;10.30;6.60;;;;;;;-0.91;97.89;102260.69;5016022;28;20694;-55
2022/03/08 05:43:06;;;;;;;8.33;7.47;;;;;;;-0.91;97.91;102255.53;5012923;28;20462;-56
2022/03/08 05:45:33;;;;;;;8.57;7.20;;;;;;;-0.98;98.16;102260.28;5014637;28;20270;-56
2022/03/08 05:48:00;;;;;;;9.87;7.23;;;;;;;-1.01;98.47;102257.47;5014427;28;20304;-55
2022/03/08 05:50:26;;;;;;;7.93;7.13;;;;;;;-1.00;98.95;102267.00;5011958;28;20554;-56
2022/03/08 05:52:52;;;;;;;9.17;7.27;;;;;;;-1.00;98.98;102260.94;5013499;28;20235;-57
2022/03/08 05:55:19;;;;;;;11.90;8.47;;;;;;;-0.96;99.43;102262.94;5011693;28;20235;-57
2022/03/08 05:57:45;;;;;;;8.20;7.40;;;;;;;-0.91;99.06;102258.09;5014705;28;20235;-57
2022/03/08 06:00:13;;;;;;;10.03;6.77;;;;;;;-0.89;98.93;102265.16;5012505;28;20260;-55
2022/03/08 06:02:42;;;;;;;8.17;6.97;;;;;;;-0.83;99.38;102255.28;5012080;28;20236;-57
2022/03/08 06:05:08;;;;;;;8.07;7.23;;;;;;;-0.78;99.45;102255.59;5012269;28;20253;-56
2022/03/08 06:07:35;;;;;;;8.03;6.57;;;;;;;-0.74;99.28;102260.16;5012436;28;20631;-56
2022/03/08 06:10:01;;;;;;;8.00;6.57;;;;;;;-0.70;99.31;102259.63;5011341;28;20267;-54
2022/03/08 06:12:27;;;;;;;8.07;6.13;;;;;;;-0.64;99.19;102257.44;5009763;28;20240;-57
2022/03/08 06:14:54;;;;;;;6.27;5.50;;;;;;;-0.60;98.93;102249.13;5013067;28;20236;-54
2022/03/08 06:17:20;;;;;;;7.17;6.47;;;;;;;-0.54;98.38;102249.53;5012924;28;20233;-56
2022/03/08 06:19:48;;;;;;;7.53;6.47;;;;;;;-0.47;98.11;102250.84;5012127;28;20899;-55
2022/03/08 06:22:14;;;;;;;8.87;6.77;;;;;;;-0.41;97.79;102252.97;5011709;28;20787;-55
2022/03/08 06:24:40;;;;;;;7.40;6.33;;;;;;;-0.40;98.00;102254.75;5011545;28;20302;-55
2022/03/08 06:27:07;;;;;;;8.90;6.57;;;;;;;-0.35;97.71;102250.78;5010254;28;20236;-54
2022/03/08 06:29:33;;;;;;;7.73;6.40;;;;;;;-0.31;97.63;102245.06;5010201;28;20310;-54
2022/03/08 06:31:59;;;;;;;8.20;7.23;;;;;;;-0.26;97.49;102241.09;5009923;28;20815;-56
2022/03/08 06:34:26;;;;;;;8.33;6.60;;;;;;;-0.09;97.56;102237.94;5009756;28;20233;-54
2022/03/08 06:36:54;;;;;;;8.03;7.00;;;;;;;-0.07;96.73;102238.97;5007840;28;20233;-54
2022/03/08 06:39:20;;;;;;;11.80;6.63;;;;;;;-0.09;96.82;102248.28;5003311;28;20235;-54
2022/03/08 06:41:46;;;;;;;10.13;6.80;;;;;;;-0.06;97.01;102240.75;5009116;28;20241;-54
2022/03/08 06:44:13;;;;;;;10.30;7.23;;;;;;;0.02;96.27;102227.44;5009302;28;20247;-55
2022/03/08 06:46:41;;;;;;;10.67;7.20;;;;;;;0.14;95.99;102235.97;5009397;28;20243;-54
2022/03/08 06:49:08;;;;;;;10.87;8.10;;;;;;;0.07;96.49;102231.19;5008410;28;20289;-54
2022/03/08 06:51:34;;;;;;;10.67;8.50;;;;;;;0.11;96.94;102233.22;5009047;28;20755;-57
2022/03/08 06:54:02;;;;;;;11.17;8.13;;;;;;;0.13;96.70;102237.66;5007579;28;20274;-56
2022/03/08 06:56:28;;;;;;;10.50;7.20;;;;;;;0.18;96.15;102237.97;5007779;28;20237;-55
2022/03/08 06:58:55;;;;;;;7.93;7.13;;;;;;;0.24;95.51;102235.78;5008596;28;20598;-54
2022/03/08 07:01:21;;;;;;;11.27;8.10;;;;;;;0.39;93.91;102234.19;5004957;28;20232;-54
2022/03/08 07:03:47;;;;;;;8.27;7.43;;;;;;;0.57;93.00;102231.00;5009093;28;20262;-55
2022/03/08 07:06:14;;;;;;;10.40;8.23;;;;;;;0.63;92.82;102233.94;5008112;28;20294;-56
2022/03/08 07:08:40;;;;;;;10.80;7.87;;;;;;;0.72;92.26;102242.31;5009403;28;20613;-54
2022/03/08 07:11:10;;;;;;;8.83;7.87;;;;;;;0.79;92.23;102241.88;5006456;28;20580;-54
2022/03/08 07:13:37;;;;;;;11.50;8.07;;;;;;;0.87;91.95;102256.19;5007896;28;20222;-55
2022/03/08 07:16:03;;;;;;;11.53;8.07;;;;;;;0.98;91.48;102251.69;5006396;28;20237;-55
2022/03/08 07:18:30;;;;;;;12.27;9.00;;;;;;;1.03;91.51;102259.75;5008479;28;20225;-54
2022/03/08 07:20:56;;;;;;;17.73;8.90;;;;;;;1.02;92.06;102257.94;5008541;28;20933;-55
2022/03/08 07:23:23;;;;;;;10.50;7.67;;;;;;;1.11;92.05;102258.50;5003910;28;20901;-54
2022/03/08 07:25:49;;;;;;;10.50;8.37;;;;;;;1.24;91.33;102250.72;5010351;28;20256;-55
2022/03/08 07:28:17;;;;;;;11.00;8.70;;;;;;;1.40;90.68;102261.19;5010901;28;20234;-54
2022/03/08 07:30:43;;;;;;;10.83;7.80;;;;;;;1.45;90.22;102261.47;5016824;28;20267;-54
2022/03/08 07:33:10;;;;;;;11.63;8.23;;;;;;;1.55;89.60;102257.75;5018992;28;20236;-54
2022/03/08 07:35:36;;;;;;;10.17;8.00;;;;;;;1.64;89.46;102253.09;5019879;28;20723;-54
2022/03/08 07:38:03;;;;;;;10.17;8.00;;;;;;;1.81;88.59;102257.59;5017775;28;20251;-56
2022/03/08 07:40:29;;;;;;;11.50;8.07;;;;;;;1.86;88.68;102258.78;5017615;28;20248;-58
2022/03/08 07:42:56;;;;;;;9.30;7.67;;;;;;;1.92;88.00;102272.06;5012277;28;20546;-56
2022/03/08 07:45:24;;;;;;;13.13;7.97;;;;;;;2.04;88.05;102273.59;5011641;28;20255;-56
2022/03/08 07:47:50;;;;;;;11.73;7.87;;;;;;;2.29;86.90;102271.63;5013244;28;20236;-56
2022/03/08 07:50:17;;;;;;;11.33;8.37;;;;;;;2.43;85.94;102269.81;5012238;28;20248;-55
2022/03/08 07:52:43;;;;;;;10.17;8.73;;;;;;;2.63;85.53;102268.31;5012630;28;20342;-55
2022/03/08 07:55:10;;;;;;;12.30;7.90;;;;;;;2.74;84.56;102262.06;5011313;28;20753;-55
2022/03/08 07:57:36;;;;;;;9.73;8.67;;;;;;;2.89;84.08;102269.78;5012701;28;20308;-54
2022/03/08 08:00:04;;;;;;;11.90;6.87;;;;;;;2.95;83.63;102264.94;5012330;28;20286;-54
2022/03/08 08:02:32;;;;;;;8.57;7.70;;;;;;;2.90;83.42;102270.66;5007521;28;20283;-56
2022/03/08 08:04:58;;;;;;;10.33;6.93;;;;;;;3.04;83.83;102270.59;5011151;28;20267;-57
2022/03/08 08:07:25;;;;;;;9.40;7.40;;;;;;;3.28;82.96;102270.16;5010378;28;20267;-56
2022/03/08 08:09:51;;;;;;;12.40;7.27;;;;;;;3.45;81.85;102258.94;5010134;28;20236;-57
2022/03/08 08:12:17;;;;;;;8.43;6.83;;;;;;;3.71;80.08;102256.81;5011231;28;20240;-57
2022/03/08 08:14:44;;;;;;;9.17;7.50;;;;;;;3.79;79.14;102251.19;5014005;28;20244;-57
2022/03/08 08:17:10;;;;;;;8.00;6.47;;;;;;;3.92;79.34;102249.22;5012486;28;20271;-57
2022/03/08 08:19:38;;;;;;;7.97;6.23;;;;;;;4.18;76.69;102242.72;5010373;28;20283;-56
2022/03/08 08:22:05;;;;;;;6.57;5.33;;;;;;;4.37;74.83;102231.50;5012025;28;20225;-55
2022/03/08 08:24:31;;;;;;;7.07;5.23;;;;;;;4.45;74.04;102227.56;5014257;28;20244;-56
2022/03/08 08:26:57;;;;;;;6.53;5.50;;;;;;;4.61;73.92;102237.88;5012892;28;20764;-57
2022/03/08 08:29:24;;;;;;;8.50;5.53;;;;;;;4.77;72.50;102239.47;5010542;28;20717;-57
2022/03/08 08:31:50;;;;;;;7.70;5.10;;;;;;;4.92;71.95;102245.41;5012452;28;20233;-58
2022/03/08 08:34:16;;;;;;;5.97;4.30;;;;;;;4.79;70.96;102240.44;5006554;28;20229;-56
2022/03/08 08:36:46;;;;;;;7.07;5.90;;;;;;;5.21;70.08;102248.44;5012427;28;20258;-56
2022/03/08 08:39:14;;;;;;;7.40;5.93;;;;;;;5.25;69.80;102251.25;5007078;28;20237;-55
2022/03/08 08:41:40;;;;;;;9.77;6.03;;;;;;;5.49;68.29;102258.38;5012702;28;20233;-56
2022/03/08 08:44:07;;;;;;;7.07;5.27;;;;;;;5.69;65.43;102249.72;5011210;28;20264;-55
2022/03/08 08:46:33;;;;;;;6.13;5.00;;;;;;;5.66;65.15;102257.41;5010562;28;20257;-57
2022/03/08 08:49:00;;;;;;;4.90;4.37;;;;;;;5.62;65.69;102265.94;5010582;28;20772;-55
2022/03/08 08:51:26;;;;;;;4.20;3.50;;;;;;;5.63;65.80;102269.41;5010858;28;20234;-55
2022/03/08 08:53:55;;;;;;;4.37;3.97;;;;;;;5.72;64.36;102265.50;5010354;28;20254;-55
2022/03/08 08:56:21;;;;;;;6.57;3.30;;;;;;;5.68;63.64;102265.28;5012046;28;20301;-55
2022/03/08 08:58:47;;;;;;;5.23;3.53;;;;;;;5.59;64.20;102257.97;5013372;28;20319;-55
2022/03/08 09:01:14;;;;;;;6.53;3.37;;;;;;;5.59;64.57;102263.19;5011388;28;20263;-55
2022/03/08 09:03:40;;;;;;;4.33;3.93;;;;;;;5.64;64.89;102261.66;5013496;28;20236;-55
2022/03/08 09:06:07;;;;;;;9.40;4.57;;;;;;;5.82;64.28;102261.56;5013750;28;20290;-56
2022/03/08 09:08:33;;;;;;;7.60;5.17;;;;;;;5.95;64.13;102255.19;5009379;28;20245;-56
2022/03/08 09:11:01;;;;;;;6.10;4.80;;;;;;;6.19;64.52;102253.63;5013377;28;20296;-57
2022/03/08 09:13:27;;;;;;;6.30;4.70;;;;;;;6.59;62.05;102254.31;5009131;28;20233;-55
2022/03/08 09:15:54;;;;;;;10.50;4.83;;;;;;;6.78;61.44;102258.56;5011168;28;20630;-55
2022/03/08 09:18:20;;;;;;;5.43;4.87;;;;;;;6.94;60.52;102253.09;5010377;28;20234;-56
2022/03/08 09:20:46;;;;;;;7.03;5.50;;;;;;;7.07;60.59;102249.22;5010611;28;20245;-56
2022/03/08 09:23:13;;;;;;;6.53;4.80;;;;;;;7.28;60.39;102252.63;5009327;28;20945;-57
2022/03/08 09:25:40;;;;;;;6.33;4.90;;;;;;;7.49;58.43;102254.25;5008315;28;20320;-57
2022/03/08 09:28:07;;;;;;;7.73;4.33;;;;;;;7.45;58.08;102260.22;5009191;28;20233;-56
2022/03/08 09:30:35;;;;;;;6.00;4.77;;;;;;;7.51;57.57;102261.34;5010865;28;20245;-56
2022/03/08 09:33:01;;;;;;;4.43;4.03;;;;;;;7.68;57.82;102261.91;5008545;28;20320;-56
2022/03/08 09:35:28;;;;;;;6.93;5.40;;;;;;;7.92;56.00;102256.66;5010909;28;20270;-58
2022/03/08 09:37:55;;;;;;;5.90;4.60;;;;;;;8.04;55.17;102254.47;5011624;28;20241;-56
2022/03/08 09:40:22;;;;;;;5.63;4.30;;;;;;;7.98;55.13;102255.97;5009642;28;20767;-56
2022/03/08 09:42:49;;;;;;;5.73;4.23;;;;;;;8.03;55.03;102252.66;5008001;28;20225;-57
2022/03/08 09:45:18;;;;;;;4.53;4.00;;;;;;;8.11;55.17;102258.19;5007732;28;20240;-56
2022/03/08 09:47:44;;;;;;;5.00;3.83;;;;;;;7.65;54.31;102257.47;5008379;28;20248;-56
2022/03/08 09:50:13;;;;;;;5.80;3.83;;;;;;;7.82;54.40;102255.44;5009774;28;20233;-55
2022/03/08 09:52:41;;;;;;;8.07;4.30;;;;;;;7.82;56.44;102257.16;5015906;28;20229;-56
2022/03/08 09:55:10;;;;;;;4.17;3.67;;;;;;;8.01;55.14;102256.97;5015197;28;20239;-56
2022/03/08 09:57:37;;;;;;;5.70;4.47;;;;;;;8.27;53.84;102249.97;5018667;28;20241;-56
2022/03/08 10:00:04;;;;;;;6.43;3.87;;;;;;;8.25;55.44;102242.91;5011907;28;20289;-59
2022/03/08 10:02:44;;;;;;;4.90;3.83;;;;;;;8.48;54.51;102246.31;5010024;28;20233;-54
2022/03/08 10:05:10;;;;;;;6.47;3.73;;;;;;;8.39;54.26;102241.69;5008481;28;20229;-56
2022/03/08 10:07:36;;;;;;;5.53;3.87;;;;;;;8.39;52.37;102239.06;5009998;28;20886;-57
2022/03/08 10:10:03;;;;;;;4.17;3.87;;;;;;;8.47;52.52;102242.81;5007529;28;20268;-56
2022/03/08 10:12:29;;;;;;;5.47;4.00;;;;;;;8.48;51.52;102243.69;5009913;28;20241;-58
2022/03/08 10:14:56;;;;;;;5.63;4.27;;;;;;;8.41;52.30;102237.38;5006826;28;20261;-56
2022/03/08 10:17:35;;;;;;;6.47;3.63;;;;;;;8.33;53.51;102234.50;5008732;28;20287;-57
2022/03/08 10:20:04;;;;;;;4.60;4.13;;;;;;;8.35;51.86;102231.91;5007303;28;20641;-56
2022/03/08 10:22:34;;;;;;;4.60;4.13;;;;;;;8.49;50.75;102243.75;5007907;28;20233;-57
2022/03/08 10:25:11;;;;;;;4.80;4.30;;;;;;;8.48;51.07;102238.47;5008466;28;20249;-56
2022/03/08 10:27:38;;;;;;;5.37;3.97;;;;;;;8.47;51.18;102237.59;5009491;28;20225;-56
2022/03/08 10:30:07;;;;;;;6.20;4.27;;;;;;;8.49;50.96;102235.88;5004731;28;20233;-55
2022/03/08 10:32:37;;;;;;;4.93;4.03;;;;;;;8.46;50.60;102230.59;5006063;28;20589;-56
2022/03/08 10:35:06;;;;;;;5.93;3.83;;;;;;;8.51;50.02;102230.72;5008631;28;20737;-56
2022/03/08 10:37:36;;;;;;;4.93;4.20;;;;;;;8.48;50.37;102228.00;5008659;28;20881;-56
2022/03/08 10:40:06;;;;;;;6.70;3.43;;;;;;;8.58;50.09;102230.94;5007503;28;20722;-56
2022/03/08 10:42:34;;;;;;;4.70;4.07;;;;;;;8.70;50.01;102227.81;5008348;28;20244;-56
2022/03/08 10:45:01;;;;;;;5.93;3.80;;;;;;;8.79;50.13;102225.47;5007969;28;20237;-55
2022/03/08 10:47:29;;;;;;;6.60;3.77;;;;;;;8.99;48.43;102217.34;5006425;28;20748;-57
2022/03/08 10:49:57;;;;;;;4.90;4.23;;;;;;;9.02;48.64;102215.72;5007056;28;20233;-56
2022/03/08 10:52:29;;;;;;;7.83;4.70;;;;;;;9.11;49.04;102220.31;5007805;28;20318;-55
2022/03/08 10:54:55;;;;;;;4.63;3.57;;;;;;;9.11;48.10;102225.56;5008534;28;20257;-56
2022/03/08 10:57:22;;;;;;;5.60;3.47;;;;;;;9.11;48.03;102222.03;5001930;28;20365;-56
2022/03/08 10:59:56;;;;;;;5.80;3.13;;;;;;;9.12;47.50;102229.06;5003698;28;20283;-56
2022/03/08 11:02:23;;;;;;;6.47;4.10;;;;;;;9.18;47.67;102218.75;5007494;28;20225;-58
2022/03/08 11:05:06;;;;;;;3.07;2.80;;;;;;;9.32;46.46;102217.41;5002127;28;20315;-57
2022/03/08 11:07:35;;;;;;;4.78;4.35;;;;;;;9.28;46.86;102211.19;4995417;28;20518;-58
2022/03/08 11:10:02;;;;;;;3.67;3.33;;;;;;;9.29;47.48;102209.47;4997292;28;20227;-56
2022/03/08 11:12:29;;;;;;;3.97;3.58;;;;;;;9.41;47.17;102199.31;4999109;28;20514;-56
2022/03/08 11:14:55;;;;;;;5.30;3.37;;;;;;;9.22;47.26;102207.50;5004182;28;20233;-58
2022/03/08 11:17:22;;;;;;;3.17;2.47;;;;;;;9.38;46.66;102207.09;5003984;28;20805;-56
2022/03/08 11:19:50;;;;;;;4.30;3.00;;;;;;;9.43;46.90;102201.97;5003233;28;20248;-56
2022/03/08 11:22:16;;;;;;;3.13;2.50;;;;;;;9.44;46.58;102191.56;5006068;28;20319;-56
2022/03/08 11:24:44;;;;;;;3.33;3.03;;;;;;;9.55;46.41;102195.34;5007775;28;20733;-56
2022/03/08 11:27:12;;;;;;;3.30;2.77;;;;;;;9.37;47.47;102192.22;5010199;28;20295;-55
2022/03/08 11:29:39;;;;;;;3.10;2.80;;;;;;;8.98;45.93;102189.34;5013214;28;20942;-56